San Diego, California
Current Conditions -  °F | °C
As of 2:51 AM on Sunday 21 Dec 2014 (Local Time) from KSAN Reporting Station
Broken Clouds Broken Clouds  
Wind Chill: 60°   Ceiling: 3100
Heat Index: 60°   Visibility: 10mi
Dew Point: 51°   Wind: 3mph
Humidity: 72%   Direction: 80°E
Pressure: 30.14"   Gusts: NA
Location:  32.72°N, 117.16°W
Report Text: KSAN 211051Z 08003KT 10SM BKN031 16/11 A3014 RMK AO2 SLP205 T01560106 $
Loading
Personal Weather Stations






























Interactive Weather Map New forecast layout! Learn more

10-Day Weather Forecast

Advertisements
Track Severe Weather on mobile